sensor_id;sensor_type;location;lat;lon;timestamp;temperature;humidity
7576;DHT22;3829;50.798;4.358;2022-09-03T00:08:17;19.80;99.90
7576;DHT22;3829;50.798;4.358;2022-09-03T00:13:38;19.80;99.90
7576;DHT22;3829;50.798;4.358;2022-09-03T00:16:07;19.90;99.90
7576;DHT22;3829;50.798;4.358;2022-09-03T00:18:42;19.80;99.90
7576;DHT22;3829;50.798;4.358;2022-09-03T00:21:16;19.80;99.90
7576;DHT22;3829;50.798;4.358;2022-09-03T00:23:44;19.80;99.90
7576;DHT22;3829;50.798;4.358;2022-09-03T00:28:53;19.90;99.90
7576;DHT22;3829;50.798;4.358;2022-09-03T00:31:38;19.80;99.90
7576;DHT22;3829;50.798;4.358;2022-09-03T00:34:27;19.80;99.90
7576;DHT22;3829;50.798;4.358;2022-09-03T00:36:55;19.80;99.90
7576;DHT22;3829;50.798;4.358;2022-09-03T00:39:24;19.80;99.90
7576;DHT22;3829;50.798;4.358;2022-09-03T00:47:50;19.60;99.90
7576;DHT22;3829;50.798;4.358;2022-09-03T00:50:44;19.60;99.90
7576;DHT22;3829;50.798;4.358;2022-09-03T00:53:39;19.60;99.90
7576;DHT22;3829;50.798;4.358;2022-09-03T00:56:29;19.70;99.90
7576;DHT22;3829;50.798;4.358;2022-09-03T00:59:10;19.70;99.90
7576;DHT22;3829;50.798;4.358;2022-09-03T01:07:48;19.50;99.90
7576;DHT22;3829;50.798;4.358;2022-09-03T01:10:44;19.40;99.90
7576;DHT22;3829;50.798;4.358;2022-09-03T01:13:28;19.40;99.90
7576;DHT22;3829;50.798;4.358;2022-09-03T01:18:50;19.50;99.90
7576;DHT22;3829;50.798;4.358;2022-09-03T01:30:08;19.30;99.90
7576;DHT22;3829;50.798;4.358;2022-09-03T01:38:45;19.60;99.90
7576;DHT22;3829;50.798;4.358;2022-09-03T01:44:31;19.70;99.90
7576;DHT22;3829;50.798;4.358;2022-09-03T01:56:01;19.80;99.90
7576;DHT22;3829;50.798;4.358;2022-09-03T01:58:46;19.80;99.90
7576;DHT22;3829;50.798;4.358;2022-09-03T02:01:22;19.80;99.90
7576;DHT22;3829;50.798;4.358;2022-09-03T02:03:50;19.80;99.90
7576;DHT22;3829;50.798;4.358;2022-09-03T02:06:16;19.70;99.90
7576;DHT22;3829;50.798;4.358;2022-09-03T02:08:45;19.70;99.90
7576;DHT22;3829;50.798;4.358;2022-09-03T02:11:10;19.60;99.90
7576;DHT22;3829;50.798;4.358;2022-09-03T02:13:40;19.50;99.90
7576;DHT22;3829;50.798;4.358;2022-09-03T02:16:13;19.60;99.90
7576;DHT22;3829;50.798;4.358;2022-09-03T02:18:43;19.70;99.90
7576;DHT22;3829;50.798;4.358;2022-09-03T02:21:11;19.70;99.90
7576;DHT22;3829;50.798;4.358;2022-09-03T02:23:39;19.70;99.90
7576;DHT22;3829;50.798;4.358;2022-09-03T02:26:06;19.80;99.90
7576;DHT22;3829;50.798;4.358;2022-09-03T02:28:33;19.80;99.90
7576;DHT22;3829;50.798;4.358;2022-09-03T02:30:58;19.90;99.90
7576;DHT22;3829;50.798;4.358;2022-09-03T02:33:25;20.00;99.90
7576;DHT22;3829;50.798;4.358;2022-09-03T02:35:52;20.00;99.90
7576;DHT22;3829;50.798;4.358;2022-09-03T02:38:20;19.90;99.90
7576;DHT22;3829;50.798;4.358;2022-09-03T02:40:45;20.00;99.90
7576;DHT22;3829;50.798;4.358;2022-09-03T02:43:19;20.00;99.90
7576;DHT22;3829;50.798;4.358;2022-09-03T02:45:48;20.00;99.90
7576;DHT22;3829;50.798;4.358;2022-09-03T02:48:17;20.00;99.90
7576;DHT22;3829;50.798;4.358;2022-09-03T02:50:45;20.10;99.90
7576;DHT22;3829;50.798;4.358;2022-09-03T02:53:11;20.00;99.90
7576;DHT22;3829;50.798;4.358;2022-09-03T02:55:36;19.90;99.90
7576;DHT22;3829;50.798;4.358;2022-09-03T02:58:02;19.90;99.90
7576;DHT22;3829;50.798;4.358;2022-09-03T03:00:29;19.90;99.90
7576;DHT22;3829;50.798;4.358;2022-09-03T03:02:55;20.00;99.90
7576;DHT22;3829;50.798;4.358;2022-09-03T03:05:25;20.10;99.90
7576;DHT22;3829;50.798;4.358;2022-09-03T03:07:54;20.00;99.90
7576;DHT22;3829;50.798;4.358;2022-09-03T03:10:20;20.10;99.90
7576;DHT22;3829;50.798;4.358;2022-09-03T03:12:46;19.90;99.90
7576;DHT22;3829;50.798;4.358;2022-09-03T03:15:12;19.80;99.90
7576;DHT22;3829;50.798;4.358;2022-09-03T03:17:37;19.80;99.90
7576;DHT22;3829;50.798;4.358;2022-09-03T03:20:03;19.90;99.90
7576;DHT22;3829;50.798;4.358;2022-09-03T03:22:28;19.90;99.90
7576;DHT22;3829;50.798;4.358;2022-09-03T03:24:54;20.00;99.90
7576;DHT22;3829;50.798;4.358;2022-09-03T03:27:21;20.00;99.90
7576;DHT22;3829;50.798;4.358;2022-09-03T03:29:48;20.00;99.90
7576;DHT22;3829;50.798;4.358;2022-09-03T03:32:14;19.90;99.90
7576;DHT22;3829;50.798;4.358;2022-09-03T03:34:40;19.90;99.90
7576;DHT22;3829;50.798;4.358;2022-09-03T03:37:05;19.80;99.90
7576;DHT22;3829;50.798;4.358;2022-09-03T03:39:31;19.80;99.90
7576;DHT22;3829;50.798;4.358;2022-09-03T03:41:56;19.70;99.90
7576;DHT22;3829;50.798;4.358;2022-09-03T03:44:22;19.60;99.90
7576;DHT22;3829;50.798;4.358;2022-09-03T03:46:47;19.50;99.90
7576;DHT22;3829;50.798;4.358;2022-09-03T03:49:13;19.40;99.90
7576;DHT22;3829;50.798;4.358;2022-09-03T03:51:39;19.50;99.90
7576;DHT22;3829;50.798;4.358;2022-09-03T03:54:05;19.40;99.90
7576;DHT22;3829;50.798;4.358;2022-09-03T03:56:31;19.40;99.90
7576;DHT22;3829;50.798;4.358;2022-09-03T03:58:58;19.20;99.90
7576;DHT22;3829;50.798;4.358;2022-09-03T04:01:26;19.20;99.90
7576;DHT22;3829;50.798;4.358;2022-09-03T04:03:54;19.10;99.90
7576;DHT22;3829;50.798;4.358;2022-09-03T04:06:20;19.00;99.90
7576;DHT22;3829;50.798;4.358;2022-09-03T04:08:48;19.00;99.90
7576;DHT22;3829;50.798;4.358;2022-09-03T04:11:16;18.90;99.90
7576;DHT22;3829;50.798;4.358;2022-09-03T04:13:43;18.70;99.90
7576;DHT22;3829;50.798;4.358;2022-09-03T04:16:13;18.70;99.90
7576;DHT22;3829;50.798;4.358;2022-09-03T04:18:40;18.60;99.90
7576;DHT22;3829;50.798;4.358;2022-09-03T04:21:08;18.70;99.90
7576;DHT22;3829;50.798;4.358;2022-09-03T04:23:37;18.50;99.90
7576;DHT22;3829;50.798;4.358;2022-09-03T04:26:03;18.50;99.90
7576;DHT22;3829;50.798;4.358;2022-09-03T04:28:28;18.60;99.90
7576;DHT22;3829;50.798;4.358;2022-09-03T04:30:54;18.60;99.90
7576;DHT22;3829;50.798;4.358;2022-09-03T04:33:24;18.60;99.90
7576;DHT22;3829;50.798;4.358;2022-09-03T04:35:50;18.80;99.90
7576;DHT22;3829;50.798;4.358;2022-09-03T04:38:15;18.70;99.90
7576;DHT22;3829;50.798;4.358;2022-09-03T04:40:41;18.70;99.90
7576;DHT22;3829;50.798;4.358;2022-09-03T04:43:07;18.80;99.90
7576;DHT22;3829;50.798;4.358;2022-09-03T04:45:32;18.80;99.90
7576;DHT22;3829;50.798;4.358;2022-09-03T04:48:02;19.00;99.90
7576;DHT22;3829;50.798;4.358;2022-09-03T04:50:31;18.90;99.90
7576;DHT22;3829;50.798;4.358;2022-09-03T04:53:02;19.10;99.90
7576;DHT22;3829;50.798;4.358;2022-09-03T04:55:36;19.20;99.90
7576;DHT22;3829;50.798;4.358;2022-09-03T04:58:02;19.30;99.90
7576;DHT22;3829;50.798;4.358;2022-09-03T05:00:28;19.30;99.90
7576;DHT22;3829;50.798;4.358;2022-09-03T05:02:53;19.40;99.90
7576;DHT22;3829;50.798;4.358;2022-09-03T05:05:19;19.40;99.90
7576;DHT22;3829;50.798;4.358;2022-09-03T05:07:45;19.40;99.90
7576;DHT22;3829;50.798;4.358;2022-09-03T05:10:12;19.40;99.90
7576;DHT22;3829;50.798;4.358;2022-09-03T05:12:47;19.40;99.90
7576;DHT22;3829;50.798;4.358;2022-09-03T05:15:21;19.20;99.90
7576;DHT22;3829;50.798;4.358;2022-09-03T05:17:47;19.20;99.90
7576;DHT22;3829;50.798;4.358;2022-09-03T05:20:13;19.20;99.90
7576;DHT22;3829;50.798;4.358;2022-09-03T05:22:39;19.20;99.90
7576;DHT22;3829;50.798;4.358;2022-09-03T05:25:05;19.40;99.90
7576;DHT22;3829;50.798;4.358;2022-09-03T05:27:31;19.40;99.90
7576;DHT22;3829;50.798;4.358;2022-09-03T05:29:57;19.40;99.90
7576;DHT22;3829;50.798;4.358;2022-09-03T05:32:22;19.40;99.90
7576;DHT22;3829;50.798;4.358;2022-09-03T05:34:49;19.40;99.90
7576;DHT22;3829;50.798;4.358;2022-09-03T05:37:15;19.50;99.90
7576;DHT22;3829;50.798;4.358;2022-09-03T05:39:40;19.60;99.90
7576;DHT22;3829;50.798;4.358;2022-09-03T05:42:06;19.70;99.90
7576;DHT22;3829;50.798;4.358;2022-09-03T05:44:31;19.70;99.90
7576;DHT22;3829;50.798;4.358;2022-09-03T05:46:57;19.80;99.90
7576;DHT22;3829;50.798;4.358;2022-09-03T05:49:23;19.70;99.90
7576;DHT22;3829;50.798;4.358;2022-09-03T05:51:49;19.60;99.90
7576;DHT22;3829;50.798;4.358;2022-09-03T05:54:15;19.50;99.90
7576;DHT22;3829;50.798;4.358;2022-09-03T05:56:40;19.50;99.90
7576;DHT22;3829;50.798;4.358;2022-09-03T05:59:08;19.60;99.90
7576;DHT22;3829;50.798;4.358;2022-09-03T06:01:36;19.70;99.90
7576;DHT22;3829;50.798;4.358;2022-09-03T06:04:13;19.80;99.90
7576;DHT22;3829;50.798;4.358;2022-09-03T06:06:41;19.70;99.90
7576;DHT22;3829;50.798;4.358;2022-09-03T06:09:09;19.70;99.90
7576;DHT22;3829;50.798;4.358;2022-09-03T06:11:36;19.80;99.90
7576;DHT22;3829;50.798;4.358;2022-09-03T06:14:04;19.90;99.90
7576;DHT22;3829;50.798;4.358;2022-09-03T06:16:31;20.10;99.90
7576;DHT22;3829;50.798;4.358;2022-09-03T06:18:59;20.00;99.90
7576;DHT22;3829;50.798;4.358;2022-09-03T06:21:24;20.00;99.90
7576;DHT22;3829;50.798;4.358;2022-09-03T06:23:51;20.10;99.90
7576;DHT22;3829;50.798;4.358;2022-09-03T06:26:18;20.30;99.90
7576;DHT22;3829;50.798;4.358;2022-09-03T06:28:45;20.30;99.90
7576;DHT22;3829;50.798;4.358;2022-09-03T06:31:15;20.20;99.90
7576;DHT22;3829;50.798;4.358;2022-09-03T06:33:42;20.30;99.90
7576;DHT22;3829;50.798;4.358;2022-09-03T06:36:10;20.30;99.90
7576;DHT22;3829;50.798;4.358;2022-09-03T06:38:36;20.20;99.90
7576;DHT22;3829;50.798;4.358;2022-09-03T06:43:32;20.40;99.90
7576;DHT22;3829;50.798;4.358;2022-09-03T06:46:19;20.60;99.90
7576;DHT22;3829;50.798;4.358;2022-09-03T06:48:46;20.70;99.90
7576;DHT22;3829;50.798;4.358;2022-09-03T06:51:17;21.00;99.90
7576;DHT22;3829;50.798;4.358;2022-09-03T06:53:46;21.00;99.90
7576;DHT22;3829;50.798;4.358;2022-09-03T06:56:15;21.10;99.90
7576;DHT22;3829;50.798;4.358;2022-09-03T06:58:46;21.10;99.90
7576;DHT22;3829;50.798;4.358;2022-09-03T07:01:22;21.10;99.90
7576;DHT22;3829;50.798;4.358;2022-09-03T07:03:54;21.30;99.90
7576;DHT22;3829;50.798;4.358;2022-09-03T07:06:21;21.20;99.90
7576;DHT22;3829;50.798;4.358;2022-09-03T07:08:47;21.10;99.90
7576;DHT22;3829;50.798;4.358;2022-09-03T07:11:15;21.00;99.90
7576;DHT22;3829;50.798;4.358;2022-09-03T07:13:43;21.00;99.90
7576;DHT22;3829;50.798;4.358;2022-09-03T07:16:35;20.90;99.90
7576;DHT22;3829;50.798;4.358;2022-09-03T07:19:02;20.90;99.90
7576;DHT22;3829;50.798;4.358;2022-09-03T07:21:30;20.80;99.90
7576;DHT22;3829;50.798;4.358;2022-09-03T07:23:56;20.80;99.90
7576;DHT22;3829;50.798;4.358;2022-09-03T07:26:23;20.90;99.90
7576;DHT22;3829;50.798;4.358;2022-09-03T07:28:49;20.80;99.90
7576;DHT22;3829;50.798;4.358;2022-09-03T07:31:18;20.80;99.90
7576;DHT22;3829;50.798;4.358;2022-09-03T07:33:45;20.80;99.90
7576;DHT22;3829;50.798;4.358;2022-09-03T07:36:15;20.70;99.90
7576;DHT22;3829;50.798;4.358;2022-09-03T07:38:43;20.60;99.90
7576;DHT22;3829;50.798;4.358;2022-09-03T07:41:10;20.50;99.90
7576;DHT22;3829;50.798;4.358;2022-09-03T07:43:41;20.60;99.90
7576;DHT22;3829;50.798;4.358;2022-09-03T07:46:11;20.70;99.90
7576;DHT22;3829;50.798;4.358;2022-09-03T07:48:38;20.70;99.90
7576;DHT22;3829;50.798;4.358;2022-09-03T07:51:05;20.60;99.90
7576;DHT22;3829;50.798;4.358;2022-09-03T07:53:31;20.80;99.90
7576;DHT22;3829;50.798;4.358;2022-09-03T07:56:01;20.90;99.90
7576;DHT22;3829;50.798;4.358;2022-09-03T07:58:30;21.20;99.90
7576;DHT22;3829;50.798;4.358;2022-09-03T08:00:58;21.20;99.90
7576;DHT22;3829;50.798;4.358;2022-09-03T08:03:27;21.40;99.90
7576;DHT22;3829;50.798;4.358;2022-09-03T08:05:53;21.50;99.90
7576;DHT22;3829;50.798;4.358;2022-09-03T08:08:24;21.80;99.90
7576;DHT22;3829;50.798;4.358;2022-09-03T08:10:49;21.90;99.90
7576;DHT22;3829;50.798;4.358;2022-09-03T08:13:15;21.80;99.90
7576;DHT22;3829;50.798;4.358;2022-09-03T08:15:41;21.80;99.90
7576;DHT22;3829;50.798;4.358;2022-09-03T08:18:07;21.90;99.90
7576;DHT22;3829;50.798;4.358;2022-09-03T08:20:33;22.10;99.90
7576;DHT22;3829;50.798;4.358;2022-09-03T08:23:00;22.10;99.90
7576;DHT22;3829;50.798;4.358;2022-09-03T08:25:27;22.30;99.90
7576;DHT22;3829;50.798;4.358;2022-09-03T08:27:53;22.30;99.90
7576;DHT22;3829;50.798;4.358;2022-09-03T08:30:19;22.50;99.90
7576;DHT22;3829;50.798;4.358;2022-09-03T08:32:45;22.80;99.90
7576;DHT22;3829;50.798;4.358;2022-09-03T08:35:11;23.00;99.90
7576;DHT22;3829;50.798;4.358;2022-09-03T08:37:37;23.20;99.90
7576;DHT22;3829;50.798;4.358;2022-09-03T08:40:04;23.30;99.90
7576;DHT22;3829;50.798;4.358;2022-09-03T08:42:48;23.20;99.90
7576;DHT22;3829;50.798;4.358;2022-09-03T08:45:18;23.30;99.90
7576;DHT22;3829;50.798;4.358;2022-09-03T08:50:25;23.60;99.90
7576;DHT22;3829;50.798;4.358;2022-09-03T08:53:10;23.20;99.90
7576;DHT22;3829;50.798;4.358;2022-09-03T08:56:06;23.00;99.90
7576;DHT22;3829;50.798;4.358;2022-09-03T08:58:33;23.10;99.90
7576;DHT22;3829;50.798;4.358;2022-09-03T09:01:19;23.00;99.90
7576;DHT22;3829;50.798;4.358;2022-09-03T09:07:03;23.60;99.90
7576;DHT22;3829;50.798;4.358;2022-09-03T09:09:39;23.60;99.90
7576;DHT22;3829;50.798;4.358;2022-09-03T09:14:44;23.70;99.90
7576;DHT22;3829;50.798;4.358;2022-09-03T09:20:05;23.50;99.90
7576;DHT22;3829;50.798;4.358;2022-09-03T09:22:37;23.60;99.90
7576;DHT22;3829;50.798;4.358;2022-09-03T09:25:18;23.80;99.90
7576;DHT22;3829;50.798;4.358;2022-09-03T09:27:59;24.10;99.90
7576;DHT22;3829;50.798;4.358;2022-09-03T09:30:25;24.40;99.90
7576;DHT22;3829;50.798;4.358;2022-09-03T09:32:51;24.40;99.90
7576;DHT22;3829;50.798;4.358;2022-09-03T09:35:17;24.30;99.90
7576;DHT22;3829;50.798;4.358;2022-09-03T09:37:55;24.40;99.90
7576;DHT22;3829;50.798;4.358;2022-09-03T09:40:32;24.40;99.90
7576;DHT22;3829;50.798;4.358;2022-09-03T09:43:06;24.20;99.90
7576;DHT22;3829;50.798;4.358;2022-09-03T09:45:32;24.20;99.90
7576;DHT22;3829;50.798;4.358;2022-09-03T09:48:12;24.30;99.90
7576;DHT22;3829;50.798;4.358;2022-09-03T09:50:40;24.20;99.90
7576;DHT22;3829;50.798;4.358;2022-09-03T09:53:09;24.30;99.90
7576;DHT22;3829;50.798;4.358;2022-09-03T09:55:52;24.20;99.90
7576;DHT22;3829;50.798;4.358;2022-09-03T09:58:20;24.10;99.90
7576;DHT22;3829;50.798;4.358;2022-09-03T10:01:10;24.30;99.90
7576;DHT22;3829;50.798;4.358;2022-09-03T10:03:46;24.40;99.90
7576;DHT22;3829;50.798;4.358;2022-09-03T10:06:14;24.80;99.90
7576;DHT22;3829;50.798;4.358;2022-09-03T10:09:13;25.00;99.90
7576;DHT22;3829;50.798;4.358;2022-09-03T10:11:45;25.70;99.90
7576;DHT22;3829;50.798;4.358;2022-09-03T10:14:42;25.70;99.90
7576;DHT22;3829;50.798;4.358;2022-09-03T10:20:35;25.50;99.90
7576;DHT22;3829;50.798;4.358;2022-09-03T10:26:08;25.80;99.90
7576;DHT22;3829;50.798;4.358;2022-09-03T10:28:38;25.50;99.90
7576;DHT22;3829;50.798;4.358;2022-09-03T10:34:17;26.00;99.90
7576;DHT22;3829;50.798;4.358;2022-09-03T10:36:48;26.40;99.90
7576;DHT22;3829;50.798;4.358;2022-09-03T10:45:28;26.20;99.90
7576;DHT22;3829;50.798;4.358;2022-09-03T10:50:53;27.00;99.90
7576;DHT22;3829;50.798;4.358;2022-09-03T11:04:59;27.00;99.90
7576;DHT22;3829;50.798;4.358;2022-09-03T11:07:52;27.00;99.90
7576;DHT22;3829;50.798;4.358;2022-09-03T11:10:31;26.90;99.90
7576;DHT22;3829;50.798;4.358;2022-09-03T11:15:50;27.10;99.90
7576;DHT22;3829;50.798;4.358;2022-09-03T11:18:32;27.30;99.90
7576;DHT22;3829;50.798;4.358;2022-09-03T11:21:02;26.90;99.90
7576;DHT22;3829;50.798;4.358;2022-09-03T11:23:32;26.90;99.90
7576;DHT22;3829;50.798;4.358;2022-09-03T11:26:06;26.90;99.90
7576;DHT22;3829;50.798;4.358;2022-09-03T11:28:43;26.50;99.90
7576;DHT22;3829;50.798;4.358;2022-09-03T11:33:58;26.50;99.90
7576;DHT22;3829;50.798;4.358;2022-09-03T11:36:34;26.50;99.90
7576;DHT22;3829;50.798;4.358;2022-09-03T11:39:22;26.60;99.90
7576;DHT22;3829;50.798;4.358;2022-09-03T11:42:03;26.80;99.90
7576;DHT22;3829;50.798;4.358;2022-09-03T11:44:42;26.80;99.90
7576;DHT22;3829;50.798;4.358;2022-09-03T11:47:14;27.00;99.90
7576;DHT22;3829;50.798;4.358;2022-09-03T11:49:46;26.90;99.90
7576;DHT22;3829;50.798;4.358;2022-09-03T11:52:12;27.00;99.90
7576;DHT22;3829;50.798;4.358;2022-09-03T11:54:45;27.00;99.90
7576;DHT22;3829;50.798;4.358;2022-09-03T11:57:13;27.10;99.90
7576;DHT22;3829;50.798;4.358;2022-09-03T11:59:41;27.40;99.90
7576;DHT22;3829;50.798;4.358;2022-09-03T12:02:29;27.60;99.90
7576;DHT22;3829;50.798;4.358;2022-09-03T12:13:27;26.80;99.90
7576;DHT22;3829;50.798;4.358;2022-09-03T12:19:05;27.60;99.90
7576;DHT22;3829;50.798;4.358;2022-09-03T12:21:37;27.90;99.90
7576;DHT22;3829;50.798;4.358;2022-09-03T12:24:03;28.10;99.90
7576;DHT22;3829;50.798;4.358;2022-09-03T12:26:29;28.50;99.90
7576;DHT22;3829;50.798;4.358;2022-09-03T12:28:56;28.60;99.90
7576;DHT22;3829;50.798;4.358;2022-09-03T12:31:28;29.20;99.90
7576;DHT22;3829;50.798;4.358;2022-09-03T12:34:11;29.20;99.90
7576;DHT22;3829;50.798;4.358;2022-09-03T12:36:44;29.40;99.90
7576;DHT22;3829;50.798;4.358;2022-09-03T12:39:14;28.90;99.90
7576;DHT22;3829;50.798;4.358;2022-09-03T12:47:10;28.50;99.90
7576;DHT22;3829;50.798;4.358;2022-09-03T12:49:41;28.70;99.90
7576;DHT22;3829;50.798;4.358;2022-09-03T12:55:00;28.70;99.90
7576;DHT22;3829;50.798;4.358;2022-09-03T12:57:32;28.70;99.90
7576;DHT22;3829;50.798;4.358;2022-09-03T13:00:07;28.30;99.90
7576;DHT22;3829;50.798;4.358;2022-09-03T13:05:17;28.00;99.90
7576;DHT22;3829;50.798;4.358;2022-09-03T13:07:49;28.20;99.90
7576;DHT22;3829;50.798;4.358;2022-09-03T13:10:32;28.50;99.90
7576;DHT22;3829;50.798;4.358;2022-09-03T13:13:01;28.70;99.90
7576;DHT22;3829;50.798;4.358;2022-09-03T13:15:28;28.80;99.90
7576;DHT22;3829;50.798;4.358;2022-09-03T13:18:18;28.90;99.90
7576;DHT22;3829;50.798;4.358;2022-09-03T13:20:49;28.80;99.90
7576;DHT22;3829;50.798;4.358;2022-09-03T13:31:50;28.70;99.90
7576;DHT22;3829;50.798;4.358;2022-09-03T13:34:36;29.20;99.90
7576;DHT22;3829;50.798;4.358;2022-09-03T13:37:32;29.30;99.90
7576;DHT22;3829;50.798;4.358;2022-09-03T13:40:02;29.10;99.90
7576;DHT22;3829;50.798;4.358;2022-09-03T13:42:39;28.70;99.90
7576;DHT22;3829;50.798;4.358;2022-09-03T13:45:27;28.70;99.90
7576;DHT22;3829;50.798;4.358;2022-09-03T13:51:08;28.40;99.90
7576;DHT22;3829;50.798;4.358;2022-09-03T13:53:50;28.60;99.90
7576;DHT22;3829;50.798;4.358;2022-09-03T14:02:06;28.00;99.90
7576;DHT22;3829;50.798;4.358;2022-09-03T14:04:54;28.10;99.90
7576;DHT22;3829;50.798;4.358;2022-09-03T14:07:41;28.60;99.90
7576;DHT22;3829;50.798;4.358;2022-09-03T14:10:22;29.20;99.90
7576;DHT22;3829;50.798;4.358;2022-09-03T14:13:04;30.30;99.90
7576;DHT22;3829;50.798;4.358;2022-09-03T14:15:41;29.90;99.90
7576;DHT22;3829;50.798;4.358;2022-09-03T14:18:15;30.00;99.90
7576;DHT22;3829;50.798;4.358;2022-09-03T14:20:58;29.50;99.90
7576;DHT22;3829;50.798;4.358;2022-09-03T14:23:46;29.50;99.90
7576;DHT22;3829;50.798;4.358;2022-09-03T14:26:32;29.00;99.90
7576;DHT22;3829;50.798;4.358;2022-09-03T14:29:06;28.50;99.90
7576;DHT22;3829;50.798;4.358;2022-09-03T14:32:08;28.10;99.90
7576;DHT22;3829;50.798;4.358;2022-09-03T14:37:49;28.70;99.90
7576;DHT22;3829;50.798;4.358;2022-09-03T14:49:40;33.50;99.90
7576;DHT22;3829;50.798;4.358;2022-09-03T14:52:47;32.60;99.90
7576;DHT22;3829;50.798;4.358;2022-09-03T14:58:19;32.60;99.90
7576;DHT22;3829;50.798;4.358;2022-09-03T15:01:01;31.70;99.90
7576;DHT22;3829;50.798;4.358;2022-09-03T15:09:31;29.00;99.90
7576;DHT22;3829;50.798;4.358;2022-09-03T15:12:18;29.00;99.90
7576;DHT22;3829;50.798;4.358;2022-09-03T15:14:48;28.80;99.90
7576;DHT22;3829;50.798;4.358;2022-09-03T15:17:45;28.60;99.90
7576;DHT22;3829;50.798;4.358;2022-09-03T15:20:35;28.30;99.90
7576;DHT22;3829;50.798;4.358;2022-09-03T15:26:09;27.50;99.90
7576;DHT22;3829;50.798;4.358;2022-09-03T15:40:30;24.00;99.90
7576;DHT22;3829;50.798;4.358;2022-09-03T15:43:09;23.10;99.90
7576;DHT22;3829;50.798;4.358;2022-09-03T15:48:31;22.20;99.90
7576;DHT22;3829;50.798;4.358;2022-09-03T15:56:13;21.90;99.90
7576;DHT22;3829;50.798;4.358;2022-09-03T15:58:56;22.00;99.90
7576;DHT22;3829;50.798;4.358;2022-09-03T16:01:44;22.20;99.90
7576;DHT22;3829;50.798;4.358;2022-09-03T16:10:09;22.70;99.90
7576;DHT22;3829;50.798;4.358;2022-09-03T16:15:46;23.20;99.90
7576;DHT22;3829;50.798;4.358;2022-09-03T16:21:31;23.50;99.90
7576;DHT22;3829;50.798;4.358;2022-09-03T16:24:03;23.50;99.90
7576;DHT22;3829;50.798;4.358;2022-09-03T16:29:16;23.30;99.90
7576;DHT22;3829;50.798;4.358;2022-09-03T16:31:56;23.20;99.90
7576;DHT22;3829;50.798;4.358;2022-09-03T16:37:21;23.10;99.90
7576;DHT22;3829;50.798;4.358;2022-09-03T16:40:19;23.10;99.90
7576;DHT22;3829;50.798;4.358;2022-09-03T16:46:01;23.30;99.90
7576;DHT22;3829;50.798;4.358;2022-09-03T16:48:55;23.40;99.90
7576;DHT22;3829;50.798;4.358;2022-09-03T17:00:14;22.90;99.90
7576;DHT22;3829;50.798;4.358;2022-09-03T17:05:42;22.60;99.90
7576;DHT22;3829;50.798;4.358;2022-09-03T17:10:51;22.30;99.90
7576;DHT22;3829;50.798;4.358;2022-09-03T17:13:45;22.10;99.90
7576;DHT22;3829;50.798;4.358;2022-09-03T17:27:11;21.70;99.90
7576;DHT22;3829;50.798;4.358;2022-09-03T17:40:47;21.30;99.90
7576;DHT22;3829;50.798;4.358;2022-09-03T17:48:54;21.40;99.90
7576;DHT22;3829;50.798;4.358;2022-09-03T17:51:50;21.40;99.90
7576;DHT22;3829;50.798;4.358;2022-09-03T17:54:39;21.30;99.90
7576;DHT22;3829;50.798;4.358;2022-09-03T17:57:24;21.10;99.90
7576;DHT22;3829;50.798;4.358;2022-09-03T18:00:08;21.10;99.90
7576;DHT22;3829;50.798;4.358;2022-09-03T18:05:20;20.90;99.90
7576;DHT22;3829;50.798;4.358;2022-09-03T18:16:10;20.90;99.90
7576;DHT22;3829;50.798;4.358;2022-09-03T18:18:46;20.90;99.90
7576;DHT22;3829;50.798;4.358;2022-09-03T18:21:23;21.00;99.90
7576;DHT22;3829;50.798;4.358;2022-09-03T18:24:32;21.10;99.90
7576;DHT22;3829;50.798;4.358;2022-09-03T18:27:38;21.20;99.90
7576;DHT22;3829;50.798;4.358;2022-09-03T18:30:23;21.30;99.90
7576;DHT22;3829;50.798;4.358;2022-09-03T18:33:08;21.30;99.90
7576;DHT22;3829;50.798;4.358;2022-09-03T18:35:53;21.30;99.90
7576;DHT22;3829;50.798;4.358;2022-09-03T18:38:38;21.30;99.90
7576;DHT22;3829;50.798;4.358;2022-09-03T18:45:14;21.30;99.90
7576;DHT22;3829;50.798;4.358;2022-09-03T18:57:13;20.90;99.90
7576;DHT22;3829;50.798;4.358;2022-09-03T19:00:11;20.90;99.90
7576;DHT22;3829;50.798;4.358;2022-09-03T19:06:07;20.80;99.90
7576;DHT22;3829;50.798;4.358;2022-09-03T19:12:34;20.60;99.90
7576;DHT22;3829;50.798;4.358;2022-09-03T19:15:27;20.40;99.90
7576;DHT22;3829;50.798;4.358;2022-09-03T19:21:46;20.30;99.90
7576;DHT22;3829;50.798;4.358;2022-09-03T19:24:31;20.30;99.90
7576;DHT22;3829;50.798;4.358;2022-09-03T19:27:30;20.20;99.90
7576;DHT22;3829;50.798;4.358;2022-09-03T19:33:32;20.20;99.90
7576;DHT22;3829;50.798;4.358;2022-09-03T19:39:54;20.20;99.90
7576;DHT22;3829;50.798;4.358;2022-09-03T19:54:40;19.90;99.90
7576;DHT22;3829;50.798;4.358;2022-09-03T19:57:26;19.90;99.90
7576;DHT22;3829;50.798;4.358;2022-09-03T20:00:12;20.00;99.90
7576;DHT22;3829;50.798;4.358;2022-09-03T20:02:57;19.90;99.90
7576;DHT22;3829;50.798;4.358;2022-09-03T20:05:42;19.90;99.90
7576;DHT22;3829;50.798;4.358;2022-09-03T20:08:27;19.90;99.90
7576;DHT22;3829;50.798;4.358;2022-09-03T20:11:20;19.90;99.90
7576;DHT22;3829;50.798;4.358;2022-09-03T20:13:47;20.00;99.90
7576;DHT22;3829;50.798;4.358;2022-09-03T20:19:45;19.90;99.90
7576;DHT22;3829;50.798;4.358;2022-09-03T20:25:29;19.90;99.90
7576;DHT22;3829;50.798;4.358;2022-09-03T20:30:43;19.90;99.90
7576;DHT22;3829;50.798;4.358;2022-09-03T20:33:24;19.90;99.90
7576;DHT22;3829;50.798;4.358;2022-09-03T20:36:20;19.90;99.90
7576;DHT22;3829;50.798;4.358;2022-09-03T20:53:00;19.80;99.90
7576;DHT22;3829;50.798;4.358;2022-09-03T21:00:47;19.80;99.90
7576;DHT22;3829;50.798;4.358;2022-09-03T21:03:20;19.80;99.90
7576;DHT22;3829;50.798;4.358;2022-09-03T21:06:05;19.70;99.90
7576;DHT22;3829;50.798;4.358;2022-09-03T21:25:00;19.40;99.90
7576;DHT22;3829;50.798;4.358;2022-09-03T21:27:41;19.40;99.90
7576;DHT22;3829;50.798;4.358;2022-09-03T21:30:12;19.30;99.90
7576;DHT22;3829;50.798;4.358;2022-09-03T21:32:49;19.30;99.90
7576;DHT22;3829;50.798;4.358;2022-09-03T21:35:27;19.30;99.90
7576;DHT22;3829;50.798;4.358;2022-09-03T21:38:06;19.20;99.90
7576;DHT22;3829;50.798;4.358;2022-09-03T21:40:34;19.20;99.90
7576;DHT22;3829;50.798;4.358;2022-09-03T21:43:30;19.10;99.90
7576;DHT22;3829;50.798;4.358;2022-09-03T21:48:33;19.10;99.90
7576;DHT22;3829;50.798;4.358;2022-09-03T21:51:11;19.20;99.90
7576;DHT22;3829;50.798;4.358;2022-09-03T21:53:46;19.20;99.90
7576;DHT22;3829;50.798;4.358;2022-09-03T21:59:10;19.20;99.90
7576;DHT22;3829;50.798;4.358;2022-09-03T22:04:12;19.10;99.90
7576;DHT22;3829;50.798;4.358;2022-09-03T22:15:27;19.20;99.90
7576;DHT22;3829;50.798;4.358;2022-09-03T22:18:06;19.20;99.90
7576;DHT22;3829;50.798;4.358;2022-09-03T22:20:42;19.20;99.90
7576;DHT22;3829;50.798;4.358;2022-09-03T22:23:20;19.20;99.90
7576;DHT22;3829;50.798;4.358;2022-09-03T22:26:01;19.10;99.90
7576;DHT22;3829;50.798;4.358;2022-09-03T22:28:44;19.10;99.90
7576;DHT22;3829;50.798;4.358;2022-09-03T22:37:05;19.10;99.90
7576;DHT22;3829;50.798;4.358;2022-09-03T22:39:37;19.10;99.90
7576;DHT22;3829;50.798;4.358;2022-09-03T22:48:34;19.10;99.90
7576;DHT22;3829;50.798;4.358;2022-09-03T22:51:03;19.10;99.90
7576;DHT22;3829;50.798;4.358;2022-09-03T22:56:07;19.10;99.90
7576;DHT22;3829;50.798;4.358;2022-09-03T23:03:41;18.90;99.90
7576;DHT22;3829;50.798;4.358;2022-09-03T23:06:25;18.90;99.90
7576;DHT22;3829;50.798;4.358;2022-09-03T23:09:06;18.80;99.90